createdAt,value
2022-12-19T15:45:22.265Z,0.69
2022-12-19T15:47:55.512Z,1.00
2022-12-19T15:50:32.081Z,1.22
2022-12-19T16:07:22.042Z,1.71
2022-12-19T16:10:03.687Z,1.73
2022-12-19T16:12:40.859Z,1.77
2022-12-19T16:15:30.080Z,1.68
2022-12-19T16:18:04.071Z,1.58
2022-12-19T16:20:41.090Z,1.51
2022-12-19T16:33:39.075Z,1.39
2022-12-19T16:36:12.301Z,1.38
2022-12-19T16:38:47.087Z,1.37
2022-12-19T16:41:24.573Z,1.34
2022-12-19T16:44:05.093Z,1.36
2022-12-19T16:46:38.355Z,1.35
2022-12-19T17:00:11.024Z,1.28
2022-12-19T17:02:55.180Z,1.30
2022-12-19T17:05:31.718Z,1.28
2022-12-19T17:08:18.048Z,1.29
2022-12-19T17:10:53.209Z,1.31
2022-12-19T17:13:28.075Z,1.31
2022-12-19T17:16:05.143Z,1.29
2022-12-19T17:29:00.032Z,1.30
2022-12-19T17:31:43.092Z,1.30
2022-12-19T17:34:26.052Z,1.31
2022-12-19T17:37:09.073Z,1.31
2022-12-19T17:39:43.657Z,1.26
2022-12-19T17:42:29.756Z,1.28
2022-12-19T17:55:46.811Z,1.33
2022-12-19T17:58:20.346Z,1.32
2022-12-19T18:00:55.092Z,1.31
2022-12-19T18:03:28.442Z,1.31
2022-12-19T18:06:08.640Z,1.31
2022-12-19T18:22:49.028Z,1.35
2022-12-19T18:25:33.032Z,1.33
2022-12-19T18:28:06.297Z,1.32
2022-12-19T18:30:40.087Z,1.31
2022-12-19T18:33:19.239Z,1.29
2022-12-19T18:36:02.051Z,1.31
2022-12-19T18:49:18.040Z,1.33
2022-12-19T18:51:51.305Z,1.34
2022-12-19T18:54:28.058Z,1.33
2022-12-19T18:57:01.325Z,1.35
2022-12-19T18:59:36.284Z,1.35
2022-12-19T19:02:26.248Z,1.33
2022-12-19T19:15:24.008Z,1.35
2022-12-19T19:18:07.051Z,1.33
2022-12-19T19:20:43.263Z,1.36
2022-12-19T19:23:19.022Z,1.31
2022-12-19T19:25:52.979Z,1.37
2022-12-19T19:41:23.024Z,1.37
2022-12-19T19:43:56.996Z,1.38
2022-12-19T19:46:30.131Z,1.38
2022-12-19T19:49:03.366Z,1.36
2022-12-19T19:51:37.013Z,1.36
2022-12-19T19:54:15.381Z,1.35
2022-12-19T19:56:57.033Z,1.35
2022-12-19T20:07:23.000Z,1.36
2022-12-19T20:10:03.008Z,1.37
2022-12-19T20:12:38.463Z,1.34
2022-12-19T20:15:14.032Z,1.32
2022-12-19T20:17:47.255Z,1.32
2022-12-19T20:20:13.990Z,1.32
2022-12-19T20:22:54.039Z,1.32
2022-12-19T20:36:14.013Z,1.27
2022-12-19T20:38:47.945Z,1.28
2022-12-19T20:41:22.009Z,1.29
2022-12-19T20:43:55.977Z,1.34
2022-12-19T20:46:29.069Z,1.33
2022-12-19T21:06:09.787Z,1.35
2022-12-19T21:08:43.734Z,1.35
2022-12-19T21:11:19.024Z,1.35
2022-12-19T21:13:52.350Z,1.37
2022-12-19T21:16:29.073Z,1.39
2022-12-19T21:29:41.018Z,1.38
2022-12-19T21:32:18.899Z,1.37
2022-12-19T21:34:59.026Z,1.35
2022-12-19T21:37:35.972Z,1.35
2022-12-19T21:40:19.023Z,1.32
2022-12-19T21:42:52.313Z,1.34
2022-12-19T21:55:42.969Z,1.33
2022-12-19T21:58:23.020Z,1.34
2022-12-19T22:01:08.260Z,1.31
2022-12-19T22:03:49.274Z,1.33
2022-12-19T22:06:28.222Z,1.32
2022-12-19T22:22:51.013Z,1.29
2022-12-19T22:25:24.428Z,1.30
2022-12-19T22:28:00.985Z,1.29
2022-12-19T22:30:35.243Z,1.22
2022-12-19T22:33:09.004Z,1.23
2022-12-19T22:35:42.231Z,1.23
2022-12-19T22:38:17.000Z,1.21
2022-12-19T22:48:01.957Z,1.26
2022-12-19T22:50:41.987Z,1.26
2022-12-19T22:53:17.181Z,1.29
2022-12-19T22:55:50.024Z,1.28
2022-12-19T22:58:23.349Z,1.29
2022-12-19T23:00:56.973Z,1.30
2022-12-19T23:14:39.631Z,1.28
2022-12-19T23:17:13.355Z,1.29
2022-12-19T23:19:47.066Z,1.29
2022-12-19T23:22:20.222Z,1.28
2022-12-19T23:24:53.974Z,1.28
2022-12-19T23:27:27.556Z,1.31
2022-12-19T23:43:43.995Z,1.31
2022-12-19T23:46:19.746Z,1.33
2022-12-19T23:48:52.996Z,1.33
2022-12-19T23:51:27.875Z,1.36
2022-12-19T23:54:03.035Z,1.35
2022-12-19T23:56:36.497Z,1.34
